createdAt,value
2019-06-10T00:01:47.612Z,156.37
2019-06-10T00:04:13.679Z,179.68
2019-06-10T00:06:41.507Z,179.87
2019-06-10T00:09:08.137Z,170.25
2019-06-10T00:11:34.428Z,154.97
2019-06-10T00:14:02.489Z,161.50
2019-06-10T00:16:30.787Z,151.85
2019-06-10T00:18:56.455Z,149.93
2019-06-10T00:21:22.536Z,155.12
2019-06-10T00:23:48.616Z,159.82
2019-06-10T00:26:14.686Z,152.82
2019-06-10T00:28:40.799Z,142.98
2019-06-10T00:31:06.985Z,139.90
2019-06-10T00:33:33.246Z,146.25
2019-06-10T00:36:01.689Z,151.20
2019-06-10T00:38:27.296Z,144.85
2019-06-10T00:40:53.389Z,148.78
2019-06-10T00:43:21.421Z,154.57
2019-06-10T00:45:47.468Z,136.75
2019-06-10T00:48:24.261Z,153.23
2019-06-10T00:50:41.892Z,148.55
2019-06-10T00:53:09.881Z,145.30
2019-06-10T00:55:36.083Z,153.15
2019-06-10T00:58:02.925Z,138.35
2019-06-10T01:00:31.765Z,141.40
2019-06-10T01:03:00.678Z,146.32
2019-06-10T01:05:26.152Z,141.22
2019-06-10T01:07:52.231Z,146.10
2019-06-10T01:10:20.927Z,146.55
2019-06-10T01:12:46.504Z,141.55
2019-06-10T01:15:15.191Z,145.10
2019-06-10T01:17:41.733Z,135.70
2019-06-10T01:20:09.993Z,141.47
2019-06-10T01:22:36.521Z,139.88
2019-06-10T01:25:05.209Z,147.13
2019-06-10T01:27:31.584Z,138.37
2019-06-10T01:29:57.775Z,143.37
2019-06-10T01:32:23.851Z,139.77
2019-06-10T01:34:50.813Z,143.75
2019-06-10T01:37:17.666Z,139.10
2019-06-10T01:39:43.928Z,143.43
2019-06-10T01:42:11.351Z,142.82
2019-06-10T01:44:38.076Z,218.97
2019-06-10T01:47:04.168Z,146.40
2019-06-10T01:49:30.811Z,142.10
2019-06-10T01:51:57.124Z,147.75
2019-06-10T01:54:23.227Z,145.53
2019-06-10T01:56:51.066Z,147.43
2019-06-10T01:59:18.573Z,153.70
2019-06-10T02:01:46.775Z,152.27
2019-06-10T02:04:14.909Z,152.62
2019-06-10T02:06:40.819Z,150.05
2019-06-10T02:09:07.120Z,157.47
2019-06-10T02:11:34.592Z,160.32
2019-06-10T02:14:01.778Z,156.00
2019-06-10T02:16:27.951Z,149.55
2019-06-10T02:19:00.093Z,152.97
2019-06-10T02:21:24.304Z,153.82
2019-06-10T02:23:51.992Z,150.25
2019-06-10T02:26:19.088Z,150.70
2019-06-10T02:28:45.639Z,146.22
2019-06-10T02:31:14.219Z,147.82
2019-06-10T02:33:42.017Z,149.72
2019-06-10T02:36:07.692Z,147.68
2019-06-10T02:38:39.305Z,150.35
2019-06-10T02:41:04.039Z,148.25
2019-06-10T02:43:33.278Z,146.87
2019-06-10T02:45:57.924Z,145.55
2019-06-10T02:48:30.086Z,141.43
2019-06-10T02:50:55.784Z,142.43
2019-06-10T02:53:28.488Z,141.57
2019-06-10T02:55:49.932Z,142.53
2019-06-10T02:58:18.349Z,145.72
2019-06-10T03:00:48.544Z,151.00
2019-06-10T03:03:14.125Z,143.47
2019-06-10T03:05:41.287Z,143.40
2019-06-10T03:08:08.124Z,138.57
2019-06-10T03:10:37.284Z,146.43
2019-06-10T03:13:02.772Z,147.85
2019-06-10T03:15:29.408Z,146.65
2019-06-10T03:17:55.473Z,150.78
2019-06-10T03:20:24.419Z,152.05
2019-06-10T03:22:49.524Z,149.97
2019-06-10T03:25:16.335Z,150.35
2019-06-10T03:27:42.600Z,150.32
2019-06-10T03:30:19.677Z,142.98
2019-06-10T03:32:42.780Z,156.18
2019-06-10T03:35:05.935Z,151.78
2019-06-10T03:37:32.906Z,143.93
2019-06-10T03:39:59.104Z,156.18
2019-06-10T03:42:26.513Z,160.55
2019-06-10T03:44:53.165Z,144.55
2019-06-10T03:47:19.259Z,161.15
2019-06-10T03:49:52.276Z,150.25
2019-06-10T03:52:13.443Z,157.82
2019-06-10T03:54:39.528Z,165.20
2019-06-10T03:57:05.595Z,157.20
2019-06-10T03:59:32.449Z,220.10
2019-06-10T04:01:58.727Z,160.75
2019-06-10T04:04:25.598Z,150.42
2019-06-10T04:06:53.302Z,165.50
2019-06-10T04:09:19.608Z,158.72
2019-06-10T04:11:45.750Z,156.47
2019-06-10T04:14:13.017Z,158.72
2019-06-10T04:16:39.424Z,159.30
2019-06-10T04:19:05.490Z,156.52
2019-06-10T04:21:32.572Z,150.55
2019-06-10T04:23:58.961Z,148.40
2019-06-10T04:26:28.094Z,150.97
2019-06-10T04:28:53.537Z,148.97
2019-06-10T04:31:21.301Z,151.95
2019-06-10T04:33:47.598Z,160.95
2019-06-10T04:36:13.693Z,153.15
2019-06-10T04:38:40.069Z,153.32
2019-06-10T04:41:06.151Z,158.37
2019-06-10T04:43:32.740Z,152.57
2019-06-10T04:45:59.021Z,161.05
2019-06-10T04:48:26.196Z,153.02
2019-06-10T04:50:53.344Z,158.97
2019-06-10T04:53:21.341Z,167.32
2019-06-10T04:55:47.752Z,168.78
2019-06-10T04:58:13.943Z,168.40
2019-06-10T05:00:40.209Z,168.60
2019-06-10T05:03:06.295Z,184.10
2019-06-10T05:05:32.903Z,179.27
2019-06-10T05:07:59.145Z,175.57
2019-06-10T05:10:26.534Z,159.35
2019-06-10T05:12:53.603Z,164.80
2019-06-10T05:15:19.829Z,164.93
2019-06-10T05:17:48.089Z,177.20
2019-06-10T05:20:15.324Z,167.98
2019-06-10T05:22:42.432Z,169.05
2019-06-10T05:25:09.479Z,172.93
2019-06-10T05:27:35.663Z,176.60
2019-06-10T05:30:03.189Z,186.45
2019-06-10T05:32:31.158Z,182.15
2019-06-10T05:34:58.289Z,185.25
2019-06-10T05:37:27.618Z,166.70
2019-06-10T05:39:54.876Z,175.57
2019-06-10T05:42:24.591Z,170.77
2019-06-10T05:44:52.286Z,202.30
2019-06-10T05:47:18.052Z,161.82
2019-06-10T05:49:44.238Z,164.70
2019-06-10T05:52:15.464Z,173.68
2019-06-10T05:54:43.099Z,158.40
2019-06-10T05:57:09.333Z,159.00
2019-06-10T05:59:35.975Z,246.35
2019-06-10T06:02:02.362Z,161.12
2019-06-10T06:04:29.939Z,180.75
2019-06-10T06:06:56.660Z,172.25
2019-06-10T06:09:22.728Z,169.62
2019-06-10T06:11:48.819Z,176.20
2019-06-10T06:14:14.894Z,172.90
2019-06-10T06:16:43.311Z,165.57
2019-06-10T06:19:09.060Z,174.45
2019-06-10T06:21:42.114Z,188.60
2019-06-10T06:24:04.095Z,192.85
2019-06-10T06:26:34.013Z,173.50
2019-06-10T06:28:58.372Z,180.18
2019-06-10T06:31:24.437Z,179.78
2019-06-10T06:33:52.678Z,188.80
2019-06-10T06:36:18.512Z,185.52
2019-06-10T06:38:44.610Z,195.10
2019-06-10T06:41:13.425Z,234.43
2019-06-10T06:43:41.979Z,236.85
2019-06-10T06:46:06.728Z,229.03
2019-06-10T06:48:36.975Z,231.15
2019-06-10T06:51:05.515Z,244.72
2019-06-10T06:53:35.299Z,253.18
2019-06-10T06:55:56.757Z,277.95
2019-06-10T06:58:23.236Z,306.25
2019-06-10T07:01:02.914Z,292.92
2019-06-10T07:03:17.390Z,288.60
2019-06-10T07:05:44.479Z,295.55
2019-06-10T07:08:12.956Z,270.12
2019-06-10T07:10:38.797Z,263.92
2019-06-10T07:13:06.141Z,274.10
2019-06-10T07:15:46.546Z,286.77
2019-06-10T07:18:12.867Z,274.35
2019-06-10T07:20:39.830Z,272.55
2019-06-10T07:23:06.341Z,299.15
2019-06-10T07:25:35.689Z,315.30
2019-06-10T07:28:02.058Z,309.60
2019-06-10T07:30:28.485Z,314.95
2019-06-10T07:32:55.320Z,342.23
2019-06-10T07:35:22.166Z,339.98
2019-06-10T07:37:48.418Z,367.87
2019-06-10T07:40:14.679Z,338.92
2019-06-10T07:42:43.650Z,327.68
2019-06-10T07:45:08.755Z,314.82
2019-06-10T07:47:35.307Z,355.43
2019-06-10T07:50:05.895Z,351.98
2019-06-10T07:52:33.146Z,382.50
2019-06-10T07:55:02.341Z,404.98
2019-06-10T07:57:27.962Z,408.45
2019-06-10T07:59:54.152Z,480.07
2019-06-10T08:02:22.874Z,493.43
2019-06-10T08:04:48.219Z,441.27
2019-06-10T08:07:14.292Z,497.75
2019-06-10T08:09:43.529Z,498.02
2019-06-10T08:12:08.349Z,501.13
2019-06-10T08:14:35.404Z,514.13
2019-06-10T08:17:03.090Z,538.72
2019-06-10T08:19:35.840Z,527.45
2019-06-10T08:21:57.405Z,500.55
2019-06-10T08:24:23.477Z,487.05
2019-06-10T08:26:49.743Z,460.45
2019-06-10T08:29:15.789Z,432.75
2019-06-10T08:31:47.562Z,448.15
2019-06-10T08:34:09.828Z,457.50
2019-06-10T08:36:36.332Z,465.38
2019-06-10T08:39:05.116Z,462.27
2019-06-10T08:41:32.262Z,452.73
2019-06-10T08:43:58.678Z,456.80
2019-06-10T08:46:24.749Z,453.58
2019-06-10T08:48:52.617Z,438.22
2019-06-10T08:51:18.815Z,441.88
2019-06-10T08:53:47.968Z,444.85
2019-06-10T08:56:13.218Z,463.52
2019-06-10T08:58:40.902Z,465.35
2019-06-10T09:01:07.532Z,498.75
2019-06-10T09:03:33.624Z,493.13
2019-06-10T09:05:59.711Z,512.50
2019-06-10T09:08:25.888Z,532.88
2019-06-10T09:10:54.929Z,547.77
2019-06-10T09:13:22.254Z,526.15
2019-06-10T09:16:06.017Z,545.45
2019-06-10T09:18:19.990Z,550.90
2019-06-10T09:20:47.527Z,509.15
2019-06-10T09:23:20.935Z,511.20
2019-06-10T09:25:41.625Z,515.95
2019-06-10T09:28:08.144Z,498.67
2019-06-10T09:30:34.215Z,529.30
2019-06-10T09:33:03.856Z,509.13
2019-06-10T09:35:28.480Z,501.63
2019-06-10T09:37:55.732Z,473.90
2019-06-10T09:40:25.856Z,486.58
2019-06-10T09:42:55.053Z,449.62
2019-06-10T09:45:22.371Z,446.07
2019-06-10T09:47:57.948Z,435.35
2019-06-10T09:50:41.144Z,423.78
2019-06-10T09:53:07.154Z,448.45
2019-06-10T09:55:33.229Z,421.45
2019-06-10T09:58:00.043Z,445.08
2019-06-10T10:00:44.554Z,435.93
2019-06-10T10:03:08.783Z,476.10
2019-06-10T10:05:35.056Z,469.10
2019-06-10T10:08:01.615Z,485.65
2019-06-10T10:10:36.002Z,490.02
2019-06-10T10:13:03.461Z,496.80
2019-06-10T10:15:33.781Z,517.80
2019-06-10T10:17:57.595Z,531.33
2019-06-10T10:20:23.650Z,540.70
2019-06-10T10:22:50.519Z,531.75
2019-06-10T10:25:17.705Z,541.83
2019-06-10T10:27:48.864Z,516.33
2019-06-10T10:30:13.495Z,528.15
2019-06-10T10:32:39.766Z,525.02
2019-06-10T10:35:06.130Z,536.33
2019-06-10T10:37:32.825Z,548.47
2019-06-10T10:39:59.084Z,559.83
2019-06-10T10:42:25.155Z,542.37
2019-06-10T10:44:58.403Z,586.77
2019-06-10T10:47:19.212Z,534.75
2019-06-10T10:49:45.280Z,556.90
2019-06-10T10:52:12.941Z,545.08
2019-06-10T10:54:39.390Z,516.45
2019-06-10T10:57:05.648Z,520.50
2019-06-10T10:59:33.226Z,561.42
2019-06-10T11:01:59.495Z,546.15
2019-06-10T11:04:25.588Z,569.80
2019-06-10T11:06:54.301Z,561.70
2019-06-10T11:09:23.020Z,586.85
2019-06-10T11:11:52.244Z,563.25
2019-06-10T11:14:18.685Z,562.02
2019-06-10T11:16:45.275Z,612.50
2019-06-10T11:19:12.990Z,592.05
2019-06-10T11:21:39.294Z,561.40
2019-06-10T11:24:05.379Z,575.90
2019-06-10T11:26:32.842Z,574.10
2019-06-10T11:28:59.203Z,556.37
2019-06-10T11:31:25.267Z,567.45
2019-06-10T11:33:55.458Z,573.30
2019-06-10T11:36:19.344Z,571.45
2019-06-10T11:38:46.256Z,589.67
2019-06-10T11:41:13.362Z,566.20
2019-06-10T11:43:39.976Z,527.50
2019-06-10T11:46:07.672Z,572.87
2019-06-10T11:48:34.044Z,573.92
2019-06-10T11:51:00.946Z,579.60
2019-06-10T11:53:28.886Z,613.05
2019-06-10T11:55:55.891Z,644.28
2019-06-10T11:58:22.667Z,636.17
2019-06-10T12:00:48.746Z,643.42
2019-06-10T12:03:14.840Z,696.50
2019-06-10T12:05:40.928Z,661.73
2019-06-10T12:08:07.017Z,661.95
2019-06-10T12:10:33.213Z,658.02
2019-06-10T12:13:04.228Z,690.47
2019-06-10T12:15:27.412Z,709.45
2019-06-10T12:18:01.797Z,710.03
2019-06-10T12:20:22.885Z,675.00
2019-06-10T12:22:49.552Z,705.50
2019-06-10T12:25:31.659Z,717.57
2019-06-10T12:27:44.355Z,716.93
2019-06-10T12:30:13.262Z,732.50
2019-06-10T12:32:42.391Z,695.30
2019-06-10T12:35:09.778Z,759.87
2019-06-10T12:37:35.929Z,793.90
2019-06-10T12:40:07.885Z,811.20
2019-06-10T12:42:33.952Z,805.80
2019-06-10T12:45:01.714Z,833.30
2019-06-10T12:47:28.029Z,829.80
2019-06-10T12:49:55.765Z,795.07
2019-06-10T12:52:22.972Z,810.47
2019-06-10T12:54:49.173Z,828.07
2019-06-10T12:57:16.458Z,832.57
2019-06-10T12:59:43.160Z,828.13
2019-06-10T13:02:18.947Z,811.80
2019-06-10T13:04:37.672Z,820.97
2019-06-10T13:07:05.633Z,823.03
2019-06-10T13:09:33.032Z,842.07
2019-06-10T13:11:59.828Z,874.00
2019-06-10T13:14:25.971Z,895.80
2019-06-10T13:16:52.687Z,916.60
2019-06-10T13:19:18.907Z,906.77
2019-06-10T13:21:44.991Z,926.13
2019-06-10T13:24:13.202Z,898.97
2019-06-10T13:26:39.059Z,902.37
2019-06-10T13:29:09.743Z,895.57
2019-06-10T13:31:33.800Z,947.63
2019-06-10T13:34:05.041Z,934.87
2019-06-10T13:36:28.595Z,915.87
2019-06-10T13:38:54.705Z,895.07
2019-06-10T13:41:22.783Z,915.10
2019-06-10T13:43:48.762Z,933.20
2019-06-10T13:46:14.839Z,955.50
2019-06-10T13:48:43.091Z,961.53
2019-06-10T13:51:11.892Z,989.70
2019-06-10T13:53:36.963Z,998.87
2019-06-10T13:56:28.731Z,999.90
2019-06-10T13:58:31.132Z,999.90
2019-06-10T14:00:57.201Z,999.90
2019-06-10T14:03:23.279Z,999.90
2019-06-10T14:05:49.355Z,999.90
2019-06-10T14:08:15.557Z,999.80
2019-06-10T14:10:42.914Z,999.90
2019-06-10T14:13:10.858Z,998.53
2019-06-10T14:15:37.192Z,997.57
2019-06-10T14:18:05.199Z,986.60
2019-06-10T14:20:32.527Z,974.80
2019-06-10T14:22:58.818Z,963.43
2019-06-10T14:25:25.032Z,974.10
2019-06-10T14:27:53.223Z,961.13
2019-06-10T14:30:19.973Z,975.17
2019-06-10T14:32:46.059Z,964.27
2019-06-10T14:35:16.301Z,976.87
2019-06-10T14:37:42.874Z,967.17
2019-06-10T14:40:10.529Z,960.57
2019-06-10T14:42:36.897Z,969.23
2019-06-10T14:45:06.611Z,986.10
2019-06-10T14:47:32.974Z,998.83
2019-06-10T14:49:59.055Z,998.13
2019-06-10T14:52:25.135Z,999.90
2019-06-10T14:54:53.156Z,999.90
2019-06-10T14:57:19.196Z,999.90
2019-06-10T14:59:45.270Z,999.90
2019-06-10T15:02:13.785Z,961.67
2019-06-10T15:04:39.323Z,927.60
2019-06-10T15:07:05.399Z,868.43
2019-06-10T15:09:33.465Z,791.33
2019-06-10T15:11:59.455Z,784.47
2019-06-10T15:14:25.544Z,713.53
2019-06-10T15:16:53.406Z,662.20
2019-06-10T15:19:25.115Z,633.53
2019-06-10T15:21:47.720Z,586.55
2019-06-10T15:24:14.058Z,578.45
2019-06-10T15:26:42.264Z,569.52
2019-06-10T15:29:09.162Z,543.50
2019-06-10T15:31:35.445Z,526.67
2019-06-10T15:34:02.918Z,514.83
2019-06-10T15:36:29.218Z,443.45
2019-06-10T15:38:55.305Z,389.25
2019-06-10T15:41:24.377Z,349.37
2019-06-10T15:43:49.564Z,314.40
2019-06-10T15:46:17.324Z,294.48
2019-06-10T15:48:43.857Z,291.52
2019-06-10T15:51:11.030Z,257.90
2019-06-10T15:53:37.901Z,253.65
2019-06-10T15:56:14.488Z,227.05
2019-06-10T15:58:32.170Z,232.92
2019-06-10T16:00:58.450Z,223.40
2019-06-10T16:03:25.623Z,205.52
2019-06-10T16:05:52.786Z,219.57
2019-06-10T16:08:20.278Z,710.02
2019-06-10T16:10:46.553Z,234.32
2019-06-10T16:13:12.639Z,220.73
2019-06-10T16:15:39.842Z,209.55
2019-06-10T16:18:05.918Z,189.03
2019-06-10T16:20:32.479Z,186.30
2019-06-10T16:22:58.678Z,184.52
2019-06-10T16:25:26.532Z,195.75
2019-06-10T16:27:54.370Z,194.72
2019-06-10T16:30:22.903Z,200.80
2019-06-10T16:32:48.885Z,180.22
2019-06-10T16:35:16.810Z,200.75
2019-06-10T16:37:43.089Z,195.32
2019-06-10T16:40:12.143Z,195.12
2019-06-10T16:42:37.953Z,178.35
2019-06-10T16:45:05.328Z,185.07
2019-06-10T16:47:32.682Z,196.43
2019-06-10T16:49:58.862Z,179.90
2019-06-10T16:52:26.086Z,191.05
2019-06-10T16:54:52.916Z,193.15
2019-06-10T16:57:19.728Z,189.32
2019-06-10T16:59:45.938Z,253.22
2019-06-10T17:02:12.787Z,199.07
2019-06-10T17:04:39.007Z,213.62
2019-06-10T17:07:05.193Z,207.15
2019-06-10T17:09:32.830Z,227.70
2019-06-10T17:11:59.152Z,234.15
2019-06-10T17:14:26.421Z,208.57
2019-06-10T17:16:53.227Z,190.65
2019-06-10T17:19:20.518Z,202.00
2019-06-10T17:21:47.292Z,216.00
2019-06-10T17:24:13.367Z,268.02
2019-06-10T17:26:39.428Z,246.62
2019-06-10T17:29:05.569Z,243.20
2019-06-10T17:31:34.866Z,203.90
2019-06-10T17:34:02.527Z,208.95
2019-06-10T17:36:30.859Z,208.05
2019-06-10T17:38:56.188Z,217.65
2019-06-10T17:41:25.871Z,220.60
2019-06-10T17:43:52.078Z,242.20
2019-06-10T17:46:18.227Z,216.73
2019-06-10T17:48:44.296Z,213.70
2019-06-10T17:51:10.376Z,201.50
2019-06-10T17:53:36.451Z,214.10
2019-06-10T17:56:03.466Z,211.85
2019-06-10T17:58:43.331Z,257.37
2019-06-10T18:00:57.856Z,213.85
2019-06-10T18:03:24.926Z,216.80
2019-06-10T18:05:53.281Z,213.18
2019-06-10T18:08:19.584Z,210.17
2019-06-10T18:10:45.671Z,220.97
2019-06-10T18:13:16.333Z,204.70
2019-06-10T18:15:39.699Z,211.32
2019-06-10T18:18:05.772Z,221.03
2019-06-10T18:20:34.023Z,207.60
2019-06-10T18:23:02.584Z,199.32
2019-06-10T18:25:28.639Z,213.52
2019-06-10T18:27:54.879Z,269.07
2019-06-10T18:30:22.230Z,209.15
2019-06-10T18:32:48.644Z,194.77
2019-06-10T18:35:15.047Z,204.00
2019-06-10T18:37:42.275Z,190.73
2019-06-10T18:40:09.210Z,187.88
2019-06-10T18:42:36.206Z,189.93
2019-06-10T18:45:06.313Z,190.70
2019-06-10T18:47:33.182Z,194.97
2019-06-10T18:50:00.441Z,189.00
2019-06-10T18:52:26.517Z,182.70
2019-06-10T18:54:52.914Z,211.97
2019-06-10T18:57:19.076Z,180.37
2019-06-10T18:59:45.151Z,265.07
2019-06-10T19:02:12.237Z,176.22
2019-06-10T19:04:40.137Z,177.47
2019-06-10T19:07:06.385Z,180.95
2019-06-10T19:09:35.864Z,185.32
2019-06-10T19:12:02.754Z,182.37
2019-06-10T19:14:29.310Z,183.35
2019-06-10T19:16:55.514Z,173.43
2019-06-10T19:19:22.891Z,180.10
2019-06-10T19:22:02.783Z,182.70
2019-06-10T19:24:17.236Z,176.75
2019-06-10T19:26:45.123Z,181.32
2019-06-10T19:29:14.908Z,191.35
2019-06-10T19:31:40.915Z,182.35
2019-06-10T19:34:07.297Z,172.78
2019-06-10T19:36:33.653Z,188.50
2019-06-10T19:39:02.172Z,181.65
2019-06-10T19:41:27.831Z,168.45
2019-06-10T19:43:53.925Z,168.87
2019-06-10T19:46:19.992Z,183.45
2019-06-10T19:48:56.618Z,172.05
2019-06-10T19:51:14.053Z,183.42
2019-06-10T19:53:43.804Z,188.42
2019-06-10T19:56:08.108Z,174.07
2019-06-10T19:58:34.239Z,176.68
2019-06-10T20:01:00.367Z,163.75
2019-06-10T20:03:26.541Z,168.72
2019-06-10T20:05:52.910Z,181.50
2019-06-10T20:08:19.208Z,205.43
2019-06-10T20:10:45.292Z,201.50
2019-06-10T20:13:11.359Z,194.13
2019-06-10T20:15:37.467Z,170.15
2019-06-10T20:18:03.628Z,172.37
2019-06-10T20:20:29.701Z,191.10
2019-06-10T20:22:57.465Z,176.30
2019-06-10T20:25:23.755Z,186.95
2019-06-10T20:27:52.194Z,183.65
2019-06-10T20:30:25.303Z,187.32
2019-06-10T20:32:50.263Z,180.72
2019-06-10T20:35:15.403Z,176.63
2019-06-10T20:37:43.976Z,186.10
2019-06-10T20:40:10.155Z,186.97
2019-06-10T20:42:36.241Z,186.82
2019-06-10T20:45:05.256Z,182.02
2019-06-10T20:47:33.322Z,187.55
2019-06-10T20:49:59.397Z,175.57
2019-06-10T20:52:25.480Z,179.50
2019-06-10T20:54:53.204Z,173.78
2019-06-10T20:57:19.544Z,172.40
2019-06-10T20:59:47.870Z,247.98
2019-06-10T21:02:13.919Z,194.52
2019-06-10T21:04:41.692Z,178.75
2019-06-10T21:07:28.475Z,157.67
2019-06-10T21:09:55.346Z,162.97
2019-06-10T21:12:22.208Z,169.25
2019-06-10T21:14:48.495Z,243.12
2019-06-10T21:17:14.676Z,149.15
2019-06-10T21:19:43.135Z,161.68
2019-06-10T21:22:08.723Z,149.82
2019-06-10T21:24:34.828Z,173.55
2019-06-10T21:27:00.928Z,147.95
2019-06-10T21:29:26.988Z,157.25
2019-06-10T21:31:54.899Z,183.15
2019-06-10T21:34:22.399Z,175.62
2019-06-10T21:36:49.418Z,196.50
2019-06-10T21:39:15.654Z,164.55
2019-06-10T21:41:42.565Z,157.22
2019-06-10T21:44:09.820Z,167.60
2019-06-10T21:46:35.895Z,200.25
2019-06-10T21:49:01.986Z,192.60
2019-06-10T21:51:31.446Z,162.90
2019-06-10T21:53:56.154Z,153.45
2019-06-10T21:56:22.624Z,169.05
2019-06-10T21:58:48.929Z,167.13
2019-06-10T22:01:17.088Z,154.63
2019-06-10T22:03:47.099Z,170.32
2019-06-10T22:06:12.361Z,162.22
2019-06-10T22:08:38.554Z,154.32
2019-06-10T22:11:04.652Z,162.40
2019-06-10T22:13:32.733Z,160.48
2019-06-10T22:15:58.752Z,155.85
2019-06-10T22:18:25.524Z,165.37
2019-06-10T22:20:55.203Z,156.87
2019-06-10T22:23:19.580Z,156.65
2019-06-10T22:25:46.749Z,151.78
2019-06-10T22:28:13.136Z,161.92
2019-06-10T22:30:39.410Z,163.70
2019-06-10T22:33:05.480Z,162.05
2019-06-10T22:35:31.771Z,153.85
2019-06-10T22:37:57.840Z,156.72
2019-06-10T22:40:23.927Z,158.45
2019-06-10T22:42:52.485Z,156.15
2019-06-10T22:45:17.958Z,172.13
2019-06-10T22:47:44.031Z,159.43
2019-06-10T22:50:12.463Z,173.62
2019-06-10T22:52:38.402Z,170.82
2019-06-10T22:55:06.662Z,158.85
2019-06-10T22:57:32.744Z,171.40
2019-06-10T22:59:59.470Z,192.32
2019-06-10T23:02:25.599Z,175.87
2019-06-10T23:04:54.526Z,162.82
2019-06-10T23:07:19.656Z,166.95
2019-06-10T23:09:45.731Z,170.57
2019-06-10T23:12:12.094Z,167.37
2019-06-10T23:14:38.293Z,177.32
2019-06-10T23:17:04.392Z,170.25
2019-06-10T23:19:32.937Z,166.20
2019-06-10T23:21:58.767Z,158.87
2019-06-10T23:24:26.125Z,152.80
2019-06-10T23:26:52.185Z,165.82
2019-06-10T23:29:18.284Z,159.05
2019-06-10T23:31:51.730Z,156.93
2019-06-10T23:34:16.636Z,166.97
2019-06-10T23:36:40.343Z,168.97
2019-06-10T23:39:06.420Z,166.50
2019-06-10T23:41:32.854Z,159.87
2019-06-10T23:43:59.271Z,152.07
2019-06-10T23:46:25.340Z,169.55
2019-06-10T23:48:51.544Z,159.15
2019-06-10T23:51:17.802Z,161.73
2019-06-10T23:53:43.971Z,156.90
2019-06-10T23:56:10.067Z,163.60
2019-06-10T23:58:36.136Z,167.30
